Flight Number: EUR3002 Duration: 8:30
Departure: Budapest Ferihegy (LHBP) at 05:30 Distance: 2982 Nm
Arrival: Montreal (CYUL) at 15:00 Equipment: B747

Weather Information
Budapest / Ferihegy, Hungary (LHBP) 47-26N 019-16E 185M May 24, 2018 - 05:30 PM EDT / 2018.05.24 2130 UTC
Wind: from the N (360 degrees) at 8 MPH (7 KT):0
Visibility: greater than 7 mile(s):0 Temperature: 66 F (19 C) Dew Point: 62 F (17 C) Relative Humidity: 88% Pressure (altimeter): 30.03 in. Hg (1017 hPa)
ob: LHBP 242130Z 36007KT CAVOK 19/17 Q1017 NOSIG cycle: 21
Sunrise: 02:59 Sunset: 18:19 (UTC)

Montreal / Pierre Elliot Trudeau International Airport, Que, Canada (CYUL) 45-28N 073-45W 36M May 24, 2018 - 05:00 PM EDT / 2018.05.24 2100 UTC
Wind: from the SW (220 degrees) at 14 MPH (12 KT):0
Visibility: 30 mile(s):0
Sky conditions: mostly clear Temperature: 73 F (23 C) Dew Point: 35 F (2 C) Relative Humidity: 25% Pressure (altimeter): 30 in. Hg (1015 hPa)
ob: CYUL 242100Z 22012KT 30SM FEW240 23/02 A3000 RMK CI2 SLP159 DENSITY ALT 1000FT cycle: 21
Sunrise: 09:18 Sunset: 00:25 (UTC)

TAF:2018/05/24 21:42 TAF CYUL 242038Z 2421/2518 23012G22KT P6SM FEW240 FM250500 24015KT P6SM SKC BECMG 2510/2512 24015G30KT RMK NXT FCST BY 250000Z

Previous Pireps for this route
Date Aircraft Flight time Fuel used Landing rate On time
2016-10-01B74708.48193159-175No
(pireps marked green are flown by you)

Route map